createdAt,value
2023-08-16T00:02:10.378Z,5.65
2023-08-16T00:04:37.938Z,5.22
2023-08-16T00:07:05.887Z,6.05
2023-08-16T00:09:34.838Z,5.60
2023-08-16T00:12:02.695Z,5.65
2023-08-16T00:14:30.061Z,5.80
2023-08-16T00:16:57.956Z,5.97
2023-08-16T00:19:25.394Z,6.75
2023-08-16T00:21:53.189Z,5.78
2023-08-16T00:24:20.679Z,5.63
2023-08-16T00:26:49.883Z,7.20
2023-08-16T00:29:17.198Z,6.90
2023-08-16T00:31:44.934Z,7.20
2023-08-16T00:34:12.515Z,7.57
2023-08-16T00:36:40.236Z,7.53
2023-08-16T00:39:07.896Z,6.10
2023-08-16T00:41:35.677Z,5.82
2023-08-16T00:44:05.205Z,6.10
2023-08-16T00:46:33.334Z,7.50
2023-08-16T00:49:00.938Z,5.15
2023-08-16T00:51:28.778Z,6.03
2023-08-16T00:53:56.209Z,7.93
2023-08-16T00:56:23.911Z,7.18
2023-08-16T00:58:51.390Z,6.25
2023-08-16T01:01:22.947Z,5.88
2023-08-16T01:03:50.762Z,5.72
2023-08-16T01:06:18.685Z,6.28
2023-08-16T01:08:46.106Z,5.93
2023-08-16T01:11:18.981Z,6.13
2023-08-16T01:13:55.769Z,7.00
2023-08-16T01:16:30.331Z,6.88
2023-08-16T01:18:58.407Z,6.75
2023-08-16T01:21:27.557Z,6.90
2023-08-16T01:24:05.945Z,7.57
2023-08-16T01:26:45.492Z,6.70
2023-08-16T01:29:13.696Z,6.03
2023-08-16T01:31:41.664Z,6.38
2023-08-16T01:34:09.107Z,7.85
2023-08-16T01:36:36.922Z,7.68
2023-08-16T01:39:04.571Z,6.25
2023-08-16T01:41:36.980Z,5.97
2023-08-16T01:44:12.113Z,5.25
2023-08-16T01:46:41.582Z,6.10
2023-08-16T01:49:10.547Z,6.95
2023-08-16T01:51:38.382Z,7.10
2023-08-16T01:54:06.476Z,5.90
2023-08-16T01:56:34.251Z,7.43
2023-08-16T01:59:01.700Z,8.85
2023-08-16T02:01:35.179Z,8.35
2023-08-16T02:04:02.659Z,7.93
2023-08-16T02:06:30.473Z,7.30
2023-08-16T02:08:57.892Z,9.07
2023-08-16T02:11:25.788Z,7.00
2023-08-16T02:13:53.143Z,8.20
2023-08-16T02:16:20.952Z,8.25
2023-08-16T02:18:49.968Z,9.02
2023-08-16T02:21:17.945Z,9.23
2023-08-16T02:23:45.357Z,9.40
2023-08-16T02:26:13.138Z,9.52
2023-08-16T02:28:40.496Z,9.93
2023-08-16T02:31:08.724Z,11.07
2023-08-16T02:33:36.187Z,11.85
2023-08-16T02:36:09.145Z,9.63
2023-08-16T02:38:36.451Z,8.13
2023-08-16T02:41:04.200Z,8.38
2023-08-16T02:43:31.572Z,8.05
2023-08-16T02:46:03.998Z,6.82
2023-08-16T02:48:31.833Z,9.00
2023-08-16T02:50:59.573Z,8.88
2023-08-16T02:53:33.184Z,9.38
2023-08-16T02:56:00.961Z,10.60
2023-08-16T02:58:28.427Z,9.88
2023-08-16T03:00:56.185Z,8.77
2023-08-16T03:03:23.970Z,9.02
2023-08-16T03:05:51.883Z,7.45
2023-08-16T03:08:19.273Z,8.15
2023-08-16T03:10:48.594Z,8.60
2023-08-16T03:13:15.951Z,7.45
2023-08-16T03:15:43.973Z,7.47
2023-08-16T03:18:11.405Z,9.27
2023-08-16T03:20:39.185Z,9.35
2023-08-16T03:23:06.642Z,9.27
2023-08-16T03:25:34.472Z,10.48
2023-08-16T03:28:07.207Z,9.30
2023-08-16T03:30:35.087Z,8.27
2023-08-16T03:33:02.640Z,8.48
2023-08-16T03:35:30.427Z,9.07
2023-08-16T03:37:57.672Z,7.82
2023-08-16T03:40:25.567Z,7.57
2023-08-16T03:42:53.073Z,7.10
2023-08-16T03:45:22.200Z,6.45
2023-08-16T03:47:49.624Z,7.18
2023-08-16T03:50:17.866Z,7.22
2023-08-16T03:52:46.266Z,6.97
2023-08-16T03:55:14.031Z,7.25
2023-08-16T03:57:41.466Z,8.55
2023-08-16T04:00:10.048Z,6.65
2023-08-16T04:02:39.059Z,8.13
2023-08-16T04:05:11.979Z,6.80
2023-08-16T04:07:39.994Z,9.30
2023-08-16T04:10:08.503Z,9.18
2023-08-16T04:12:36.094Z,9.25
2023-08-16T04:15:04.203Z,8.15
2023-08-16T04:17:31.726Z,8.07
2023-08-16T04:20:00.949Z,8.02
2023-08-16T04:22:28.356Z,9.20
2023-08-16T04:24:56.222Z,9.00
2023-08-16T04:27:23.829Z,9.70
2023-08-16T04:29:51.840Z,9.80
2023-08-16T04:32:19.259Z,10.43
2023-08-16T04:34:47.041Z,8.55
2023-08-16T04:37:15.882Z,9.25
2023-08-16T04:39:43.672Z,8.77
2023-08-16T04:42:11.152Z,8.60
2023-08-16T04:44:38.912Z,9.07
2023-08-16T04:47:08.819Z,9.27
2023-08-16T04:49:36.861Z,9.07
2023-08-16T04:52:04.973Z,8.93
2023-08-16T04:54:34.056Z,9.50
2023-08-16T04:57:01.501Z,8.63
2023-08-16T04:59:29.238Z,7.63
2023-08-16T05:01:56.655Z,7.78
2023-08-16T05:04:29.016Z,8.02
2023-08-16T05:06:56.459Z,8.45
2023-08-16T05:09:24.334Z,8.50
2023-08-16T05:11:57.150Z,9.25
2023-08-16T05:14:25.002Z,9.20
2023-08-16T05:16:52.465Z,8.48
2023-08-16T05:19:20.366Z,8.50
2023-08-16T05:21:47.771Z,8.00
2023-08-16T05:24:20.034Z,8.70
2023-08-16T05:26:47.469Z,8.57
2023-08-16T05:29:20.098Z,8.43
2023-08-16T05:31:47.489Z,8.52
2023-08-16T05:34:15.302Z,8.50
2023-08-16T05:36:47.237Z,8.88
2023-08-16T05:39:19.102Z,8.25
2023-08-16T05:41:46.379Z,8.50
2023-08-16T05:44:14.196Z,8.32
2023-08-16T05:46:43.116Z,7.70
2023-08-16T05:49:11.650Z,8.10
2023-08-16T05:51:39.053Z,8.27
2023-08-16T05:54:06.984Z,8.43
2023-08-16T05:56:34.318Z,8.05
2023-08-16T05:59:02.198Z,8.20
2023-08-16T06:01:29.712Z,8.48
2023-08-16T06:04:03.263Z,7.90
2023-08-16T06:06:30.764Z,8.68
2023-08-16T06:08:58.591Z,8.25
2023-08-16T06:11:26.062Z,7.88
2023-08-16T06:13:54.012Z,8.23
2023-08-16T06:16:21.510Z,8.20
2023-08-16T06:18:49.254Z,7.88
2023-08-16T06:21:23.551Z,7.07
2023-08-16T06:23:54.642Z,7.72
2023-08-16T06:26:28.080Z,7.75
2023-08-16T06:28:55.963Z,8.20
2023-08-16T06:31:23.394Z,7.82
2023-08-16T06:33:51.205Z,8.05
2023-08-16T06:36:24.114Z,7.13
2023-08-16T06:38:51.809Z,7.38
2023-08-16T06:41:19.100Z,7.78
2023-08-16T06:43:46.939Z,7.20
2023-08-16T06:46:14.563Z,7.20
2023-08-16T06:48:42.465Z,6.70
2023-08-16T06:51:09.938Z,7.57
2023-08-16T06:53:39.142Z,7.57
2023-08-16T06:56:06.549Z,7.50
2023-08-16T06:58:34.324Z,7.07
2023-08-16T07:01:02.020Z,7.65
2023-08-16T07:03:30.015Z,6.80
2023-08-16T07:06:00.328Z,8.20
2023-08-16T07:08:29.671Z,7.55
2023-08-16T07:10:58.607Z,7.00
2023-08-16T07:13:26.444Z,7.47
2023-08-16T07:15:53.872Z,7.63
2023-08-16T07:18:21.818Z,7.90
2023-08-16T07:20:49.263Z,6.82
2023-08-16T07:23:17.211Z,6.90
2023-08-16T07:25:44.681Z,7.65
2023-08-16T07:28:13.966Z,7.35
2023-08-16T07:30:41.391Z,7.63
2023-08-16T07:33:09.276Z,7.53
2023-08-16T07:35:36.816Z,7.40
2023-08-16T07:38:05.027Z,7.80
2023-08-16T07:40:32.962Z,7.15
2023-08-16T07:43:00.967Z,6.65
2023-08-16T07:45:29.993Z,6.78
2023-08-16T07:47:57.820Z,7.78
2023-08-16T07:50:25.380Z,7.03
2023-08-16T07:52:53.230Z,6.88
2023-08-16T07:55:24.153Z,7.20
2023-08-16T07:57:52.038Z,7.78
2023-08-16T08:00:19.592Z,7.35
2023-08-16T08:03:00.182Z,7.15
2023-08-16T08:05:28.128Z,7.22
2023-08-16T08:07:56.131Z,7.03
2023-08-16T08:10:23.786Z,6.80
2023-08-16T08:12:51.672Z,6.60
2023-08-16T08:15:21.874Z,7.05
2023-08-16T08:17:49.760Z,6.90
2023-08-16T08:20:22.132Z,6.95
2023-08-16T08:22:50.041Z,6.72
2023-08-16T08:25:17.774Z,7.55
2023-08-16T08:27:45.653Z,6.57
2023-08-16T08:30:13.874Z,6.68
2023-08-16T08:32:41.635Z,6.88
2023-08-16T08:35:09.551Z,6.93
2023-08-16T08:37:43.132Z,6.43
2023-08-16T08:40:10.891Z,6.90
2023-08-16T08:42:40.813Z,6.60
2023-08-16T08:45:09.843Z,6.35
2023-08-16T08:47:39.059Z,6.10
2023-08-16T08:50:07.837Z,6.57
2023-08-16T08:52:35.788Z,6.78
2023-08-16T08:55:09.879Z,7.20
2023-08-16T08:57:38.357Z,6.93
2023-08-16T09:00:07.405Z,6.65
2023-08-16T09:02:37.518Z,6.35
2023-08-16T09:05:08.082Z,6.72
2023-08-16T09:10:11.212Z,6.55
2023-08-16T09:12:39.410Z,6.70
2023-08-16T09:15:09.123Z,6.65
2023-08-16T09:17:37.591Z,6.75
2023-08-16T09:20:05.970Z,6.97
2023-08-16T09:22:33.753Z,6.47
2023-08-16T09:25:03.571Z,6.97
2023-08-16T09:27:32.930Z,6.55
2023-08-16T09:30:00.456Z,6.30
2023-08-16T09:32:30.480Z,5.93
2023-08-16T09:35:00.181Z,5.80
2023-08-16T09:37:31.962Z,6.60
2023-08-16T09:39:59.881Z,6.05
2023-08-16T09:42:35.454Z,6.10
2023-08-16T09:45:03.543Z,5.80
2023-08-16T09:47:59.424Z,5.95
2023-08-16T09:50:28.832Z,5.75
2023-08-16T09:52:57.844Z,5.82
2023-08-16T09:55:30.827Z,6.15
2023-08-16T09:58:04.448Z,6.07
2023-08-16T10:00:31.896Z,5.95
2023-08-16T10:02:59.787Z,6.75
2023-08-16T10:05:28.619Z,6.32
2023-08-16T10:08:14.538Z,6.88
2023-08-16T10:10:42.796Z,6.55
2023-08-16T10:13:13.272Z,6.90
2023-08-16T10:15:43.723Z,6.93
2023-08-16T10:18:13.957Z,6.35
2023-08-16T10:20:45.729Z,6.78
2023-08-16T10:23:19.735Z,6.20
2023-08-16T10:25:50.084Z,6.20
2023-08-16T10:28:23.068Z,6.53
2023-08-16T10:33:33.819Z,6.22
2023-08-16T10:36:07.502Z,6.78
2023-08-16T10:38:38.054Z,5.63
2023-08-16T10:41:14.037Z,6.20
2023-08-16T10:43:50.704Z,6.43
2023-08-16T10:46:28.654Z,6.00
2023-08-16T10:48:59.685Z,6.20
2023-08-16T10:51:29.960Z,5.70
2023-08-16T10:54:02.218Z,5.25
2023-08-16T10:56:37.493Z,5.25
2023-08-16T10:59:12.202Z,5.43
2023-08-16T11:01:46.963Z,5.93
2023-08-16T11:04:15.348Z,6.35
2023-08-16T11:06:55.801Z,6.10
2023-08-16T11:09:29.894Z,5.43
2023-08-16T11:12:02.040Z,5.93
2023-08-16T11:14:31.432Z,6.30
2023-08-16T11:16:58.885Z,5.80
2023-08-16T11:19:26.974Z,6.35
2023-08-16T11:22:01.816Z,6.50
2023-08-16T11:24:30.139Z,5.97
2023-08-16T11:26:57.646Z,6.40
2023-08-16T11:29:25.473Z,6.30
2023-08-16T11:32:03.528Z,6.28
2023-08-16T11:34:32.806Z,5.90
2023-08-16T11:37:00.268Z,5.85
2023-08-16T11:39:28.143Z,5.75
2023-08-16T11:41:59.500Z,5.95
2023-08-16T11:44:42.494Z,6.03
2023-08-16T11:47:18.501Z,5.57
2023-08-16T11:49:53.500Z,6.35
2023-08-16T11:52:21.906Z,5.82
2023-08-16T11:55:08.560Z,5.63
2023-08-16T11:57:44.299Z,6.10
2023-08-16T12:00:27.504Z,5.57
2023-08-16T12:03:02.979Z,5.80
2023-08-16T12:05:35.045Z,6.10
2023-08-16T12:08:10.538Z,5.75
2023-08-16T12:10:38.572Z,5.78
2023-08-16T12:13:13.150Z,6.35
2023-08-16T12:15:41.776Z,6.55
2023-08-16T12:18:14.421Z,6.00
2023-08-16T12:20:44.882Z,6.13
2023-08-16T12:23:12.645Z,5.43
2023-08-16T12:25:40.788Z,5.85
2023-08-16T12:28:08.281Z,5.88
2023-08-16T12:30:41.220Z,5.82
2023-08-16T12:33:13.825Z,5.85
2023-08-16T12:35:42.722Z,5.43
2023-08-16T12:38:10.440Z,5.63
2023-08-16T12:40:38.356Z,5.40
2023-08-16T12:45:38.599Z,6.22
2023-08-16T12:48:15.005Z,5.97
2023-08-16T12:50:43.172Z,5.53
2023-08-16T12:55:43.011Z,6.35
2023-08-16T12:58:21.401Z,6.20
2023-08-16T13:00:49.605Z,5.80
2023-08-16T13:03:32.188Z,5.80
2023-08-16T13:08:32.229Z,6.43
2023-08-16T13:11:09.677Z,6.20
2023-08-16T13:13:43.653Z,6.65
2023-08-16T13:16:12.734Z,6.63
2023-08-16T13:18:46.368Z,6.45
2023-08-16T13:21:20.161Z,6.88
2023-08-16T13:24:05.234Z,7.25
2023-08-16T13:26:40.176Z,6.97
2023-08-16T13:29:24.561Z,7.45
2023-08-16T13:32:01.230Z,6.97
2023-08-16T13:37:04.881Z,7.03
2023-08-16T13:40:01.770Z,6.57
2023-08-16T13:47:31.651Z,6.63
2023-08-16T13:50:00.568Z,6.38
2023-08-16T13:52:33.142Z,6.55
2023-08-16T13:55:00.607Z,7.18
2023-08-16T13:57:28.529Z,6.80
2023-08-16T13:59:56.221Z,6.68
2023-08-16T14:02:30.481Z,6.43
2023-08-16T14:04:58.156Z,6.95
2023-08-16T14:07:31.263Z,6.18
2023-08-16T14:10:00.471Z,6.18
2023-08-16T14:12:28.262Z,6.78
2023-08-16T14:14:55.718Z,6.20
2023-08-16T14:17:23.553Z,6.68
2023-08-16T14:19:51.011Z,6.78
2023-08-16T14:22:18.865Z,6.47
2023-08-16T14:24:47.828Z,7.18
2023-08-16T14:27:15.748Z,6.82
2023-08-16T14:29:43.292Z,6.80
2023-08-16T14:32:11.152Z,6.97
2023-08-16T14:34:38.594Z,6.55
2023-08-16T14:37:06.564Z,6.35
2023-08-16T14:39:33.956Z,7.15
2023-08-16T14:42:03.369Z,7.38
2023-08-16T14:44:30.861Z,6.55
2023-08-16T14:46:58.908Z,6.75
2023-08-16T14:49:26.507Z,7.32
2023-08-16T14:51:54.604Z,6.63
2023-08-16T14:54:22.099Z,6.38
2023-08-16T14:56:49.955Z,6.63
2023-08-16T14:59:23.217Z,6.85
2023-08-16T15:01:51.020Z,6.60
2023-08-16T15:04:18.485Z,6.60
2023-08-16T15:06:46.397Z,6.88
2023-08-16T15:09:13.943Z,6.07
2023-08-16T15:11:41.936Z,6.40
2023-08-16T15:14:09.378Z,6.15
2023-08-16T15:16:38.600Z,6.47
2023-08-16T15:19:06.034Z,6.90
2023-08-16T15:21:33.951Z,6.70
2023-08-16T15:24:01.470Z,7.15
2023-08-16T15:26:29.334Z,6.18
2023-08-16T15:28:56.744Z,6.63
2023-08-16T15:31:24.871Z,7.13
2023-08-16T15:33:53.671Z,6.38
2023-08-16T15:36:21.480Z,6.80
2023-08-16T15:38:52.316Z,7.07
2023-08-16T15:41:20.997Z,7.10
2023-08-16T15:43:48.529Z,6.70
2023-08-16T15:46:16.537Z,7.18
2023-08-16T15:48:44.101Z,6.47
2023-08-16T15:51:13.399Z,6.65
2023-08-16T15:53:41.010Z,7.45
2023-08-16T15:56:08.862Z,6.53
2023-08-16T15:58:36.212Z,6.85
2023-08-16T16:01:05.467Z,6.75
2023-08-16T16:03:33.194Z,6.70
2023-08-16T16:06:01.132Z,6.45
2023-08-16T16:08:30.872Z,6.38
2023-08-16T16:10:58.797Z,7.00
2023-08-16T16:13:26.294Z,7.13
2023-08-16T16:15:54.337Z,6.72
2023-08-16T16:18:22.409Z,6.57
2023-08-16T16:20:50.350Z,7.15
2023-08-16T16:23:17.840Z,6.85
2023-08-16T16:25:51.070Z,6.70
2023-08-16T16:28:18.484Z,6.75
2023-08-16T16:30:46.409Z,7.05
2023-08-16T16:33:13.767Z,6.93
2023-08-16T16:35:41.679Z,6.57
2023-08-16T16:38:09.143Z,7.00
2023-08-16T16:40:36.941Z,6.53
2023-08-16T16:43:10.208Z,7.00
2023-08-16T16:45:38.002Z,6.57
2023-08-16T16:48:06.153Z,7.25
2023-08-16T16:50:34.081Z,7.00
2023-08-16T16:53:01.481Z,7.22
2023-08-16T16:55:29.263Z,6.85
2023-08-16T16:57:56.764Z,6.10
2023-08-16T17:00:30.131Z,7.10
2023-08-16T17:02:57.510Z,6.32
2023-08-16T17:05:25.318Z,7.13
2023-08-16T17:07:52.841Z,7.18
2023-08-16T17:10:20.630Z,7.07
2023-08-16T17:12:48.145Z,6.47
2023-08-16T17:15:16.062Z,7.40
2023-08-16T17:17:47.451Z,6.95
2023-08-16T17:20:15.612Z,7.45
2023-08-16T17:22:43.016Z,6.78
2023-08-16T17:25:11.671Z,6.60
2023-08-16T17:27:39.175Z,7.32
2023-08-16T17:30:08.753Z,7.38
2023-08-16T17:32:36.268Z,6.85
2023-08-16T17:35:05.634Z,6.78
2023-08-16T17:37:33.599Z,7.10
2023-08-16T17:40:01.012Z,7.53
2023-08-16T17:42:28.849Z,7.15
2023-08-16T17:44:56.270Z,7.18
2023-08-16T17:47:24.362Z,7.25
2023-08-16T17:49:52.113Z,7.28
2023-08-16T17:52:21.388Z,7.05
2023-08-16T17:54:48.852Z,6.90
2023-08-16T17:57:21.043Z,6.63
2023-08-16T17:59:48.560Z,7.40
2023-08-16T18:02:16.573Z,7.32
2023-08-16T18:04:44.107Z,6.47
2023-08-16T18:07:25.501Z,7.05
2023-08-16T18:09:53.240Z,7.28
2023-08-16T18:12:23.507Z,7.47
2023-08-16T18:14:54.006Z,6.65
2023-08-16T18:17:22.436Z,6.88
2023-08-16T18:19:49.961Z,6.85
2023-08-16T18:22:18.171Z,7.10
2023-08-16T18:24:47.111Z,6.72
2023-08-16T18:27:19.098Z,7.32
2023-08-16T18:29:46.633Z,7.22
2023-08-16T18:32:14.592Z,6.80
2023-08-16T18:34:42.036Z,7.05
2023-08-16T18:37:14.208Z,6.95
2023-08-16T18:39:41.930Z,7.05
2023-08-16T18:42:11.103Z,7.35
2023-08-16T18:44:38.702Z,7.60
2023-08-16T18:47:06.906Z,7.65
2023-08-16T18:49:34.334Z,7.28
2023-08-16T18:52:05.517Z,7.60
2023-08-16T18:54:33.115Z,7.05
2023-08-16T18:57:00.996Z,8.05
2023-08-16T18:59:41.524Z,7.97
2023-08-16T19:02:09.513Z,7.68
2023-08-16T19:04:37.079Z,7.55
2023-08-16T19:07:05.581Z,7.00
2023-08-16T19:09:33.174Z,7.45
2023-08-16T19:12:01.092Z,7.18
2023-08-16T19:14:35.138Z,6.55
2023-08-16T19:17:04.834Z,7.45
2023-08-16T19:19:32.326Z,6.55
2023-08-16T19:22:05.673Z,6.30
2023-08-16T19:24:33.319Z,6.75
2023-08-16T19:27:01.269Z,6.70
2023-08-16T19:29:34.250Z,6.43
2023-08-16T19:32:02.124Z,7.00
2023-08-16T19:34:33.502Z,6.15
2023-08-16T19:37:06.234Z,6.22
2023-08-16T19:39:33.823Z,6.38
2023-08-16T19:42:01.846Z,7.05
2023-08-16T19:44:30.759Z,6.63
2023-08-16T19:47:03.516Z,7.13
2023-08-16T19:49:30.956Z,6.65
2023-08-16T19:51:59.136Z,6.25
2023-08-16T19:54:26.996Z,6.18
2023-08-16T19:56:55.045Z,6.13
2023-08-16T19:59:22.624Z,6.88
2023-08-16T20:01:56.142Z,5.93
2023-08-16T20:04:23.699Z,6.35
2023-08-16T20:06:57.301Z,5.93
2023-08-16T20:09:24.834Z,5.95
2023-08-16T20:11:52.509Z,6.07
2023-08-16T20:14:20.056Z,6.45
2023-08-16T20:16:53.561Z,6.32
2023-08-16T20:19:21.093Z,6.18
2023-08-16T20:21:48.992Z,5.63
2023-08-16T20:24:16.775Z,5.97
2023-08-16T20:26:44.733Z,5.93
2023-08-16T20:29:12.092Z,5.70
2023-08-16T20:31:40.133Z,5.55
2023-08-16T20:34:17.527Z,5.38
2023-08-16T20:36:45.566Z,5.85
2023-08-16T20:39:13.130Z,5.43
2023-08-16T20:41:45.872Z,5.25
2023-08-16T20:44:13.554Z,5.40
2023-08-16T20:46:45.179Z,5.13
2023-08-16T20:49:18.287Z,4.95
2023-08-16T20:51:50.512Z,4.95
2023-08-16T20:54:18.342Z,5.00
2023-08-16T20:56:46.165Z,5.20
2023-08-16T20:59:13.652Z,4.72
2023-08-16T21:01:43.919Z,5.47
2023-08-16T21:04:18.108Z,4.43
2023-08-16T21:06:45.915Z,3.63
2023-08-16T21:09:13.450Z,3.65
2023-08-16T21:11:41.399Z,3.50
2023-08-16T21:14:08.761Z,3.72
2023-08-16T21:16:36.645Z,3.50
2023-08-16T21:19:04.386Z,3.40
2023-08-16T21:21:33.847Z,3.30
2023-08-16T21:24:01.360Z,2.80
2023-08-16T21:26:29.298Z,2.60
2023-08-16T21:28:57.173Z,2.13
2023-08-16T21:31:25.801Z,1.85
2023-08-16T21:33:53.565Z,1.77
2023-08-16T21:36:24.162Z,1.35
2023-08-16T21:38:54.161Z,1.33
2023-08-16T21:41:21.999Z,1.30
2023-08-16T21:43:49.469Z,1.65
2023-08-16T21:46:18.497Z,1.35
2023-08-16T21:48:46.047Z,1.42
2023-08-16T21:51:14.048Z,1.48
2023-08-16T21:53:41.384Z,1.40
2023-08-16T21:56:14.442Z,1.48
2023-08-16T21:58:42.117Z,1.35
2023-08-16T22:01:10.085Z,1.85
2023-08-16T22:03:37.790Z,1.58
2023-08-16T22:06:05.731Z,1.80
2023-08-16T22:08:33.186Z,1.60
2023-08-16T22:11:01.575Z,1.45
2023-08-16T22:13:34.167Z,1.65
2023-08-16T22:16:02.097Z,1.70
2023-08-16T22:18:29.631Z,2.10
2023-08-16T22:21:03.037Z,1.80
2023-08-16T22:23:32.128Z,1.88
2023-08-16T22:26:00.084Z,1.60
2023-08-16T22:28:27.665Z,1.55
2023-08-16T22:30:56.794Z,2.20
2023-08-16T22:33:24.227Z,1.50
2023-08-16T22:35:52.743Z,1.92
2023-08-16T22:38:20.209Z,1.55
2023-08-16T22:40:48.039Z,1.80
2023-08-16T22:43:15.568Z,1.70
2023-08-16T22:45:43.434Z,1.60
2023-08-16T22:48:12.371Z,1.60
2023-08-16T22:50:40.239Z,1.85
2023-08-16T22:53:07.752Z,2.70
2023-08-16T22:55:35.512Z,1.90
2023-08-16T22:58:02.977Z,1.80
2023-08-16T23:00:30.854Z,2.03
2023-08-16T23:02:58.432Z,2.05
2023-08-16T23:05:27.631Z,1.70
2023-08-16T23:07:55.011Z,1.58
2023-08-16T23:10:22.912Z,1.85
2023-08-16T23:12:50.270Z,1.50
2023-08-16T23:15:18.359Z,1.40
2023-08-16T23:17:45.834Z,1.77
2023-08-16T23:20:13.714Z,1.92
2023-08-16T23:22:42.565Z,1.92
2023-08-16T23:25:11.092Z,1.90
2023-08-16T23:27:38.803Z,1.80
2023-08-16T23:30:07.720Z,2.10
2023-08-16T23:32:35.641Z,2.17
2023-08-16T23:35:03.504Z,2.10
2023-08-16T23:37:32.193Z,2.00
2023-08-16T23:40:01.055Z,2.20
2023-08-16T23:42:28.870Z,2.20
2023-08-16T23:44:56.365Z,1.90
2023-08-16T23:47:24.640Z,2.20
2023-08-16T23:49:52.426Z,2.13
2023-08-16T23:52:20.223Z,2.33
2023-08-16T23:54:47.608Z,2.08
2023-08-16T23:57:21.051Z,2.47
2023-08-16T23:59:48.362Z,2.53
